createdAt,value
2023-01-11T00:00:40.862Z,993.74
2023-01-11T00:01:40.880Z,993.77
2023-01-11T00:02:40.936Z,993.8
2023-01-11T00:03:40.922Z,993.86
2023-01-11T00:04:41.034Z,993.85
2023-01-11T00:05:40.943Z,993.84
2023-01-11T00:06:41.014Z,993.85
2023-01-11T00:07:41.025Z,993.82
2023-01-11T00:08:40.979Z,993.77
2023-01-11T00:09:40.997Z,993.63
2023-01-11T00:10:41.048Z,993.68
2023-01-11T00:11:41.027Z,993.7
2023-01-11T00:12:41.046Z,993.74
2023-01-11T00:13:41.058Z,993.71
2023-01-11T00:14:41.071Z,993.62
2023-01-11T00:15:41.124Z,993.61
2023-01-11T00:16:41.104Z,993.66
2023-01-11T00:17:41.125Z,993.71
2023-01-11T00:18:41.160Z,993.78
2023-01-11T00:19:41.146Z,993.7
2023-01-11T00:20:41.166Z,993.66
2023-01-11T00:21:41.179Z,993.64
2023-01-11T00:22:41.192Z,993.68
2023-01-11T00:23:41.209Z,993.7
2023-01-11T00:24:41.223Z,993.69
2023-01-11T00:25:41.235Z,993.74
2023-01-11T00:26:41.277Z,993.63
2023-01-11T00:27:41.277Z,993.59
2023-01-11T00:28:41.288Z,993.6
2023-01-11T00:29:41.298Z,993.67
2023-01-11T00:30:41.309Z,993.58
2023-01-11T00:31:41.343Z,993.56
2023-01-11T00:32:41.361Z,993.58
2023-01-11T00:33:41.353Z,993.5
2023-01-11T00:34:41.373Z,993.48
2023-01-11T00:35:41.384Z,993.5
2023-01-11T00:36:41.404Z,993.48
2023-01-11T00:37:41.447Z,993.42
2023-01-11T00:38:41.443Z,993.39
2023-01-11T00:39:41.445Z,993.36
2023-01-11T00:40:41.913Z,993.39
2023-01-11T00:41:41.497Z,993.43
2023-01-11T00:42:41.514Z,993.45
2023-01-11T00:43:41.504Z,993.45
2023-01-11T00:44:41.524Z,993.47
2023-01-11T00:45:41.537Z,993.49
2023-01-11T00:46:41.549Z,993.44
2023-01-11T00:47:41.565Z,993.43
2023-01-11T00:48:41.582Z,993.43
2023-01-11T00:49:41.607Z,993.38
2023-01-11T00:50:41.609Z,993.48
2023-01-11T00:51:41.625Z,993.45
2023-01-11T00:52:41.641Z,993.46
2023-01-11T00:53:41.651Z,993.46
2023-01-11T00:54:41.721Z,993.37
2023-01-11T00:55:41.682Z,993.37
2023-01-11T00:56:41.699Z,993.34
2023-01-11T00:57:41.722Z,993.38
2023-01-11T00:58:41.754Z,993.35
2023-01-11T00:59:41.747Z,993.33
2023-01-11T01:00:41.765Z,993.41
2023-01-11T01:01:41.830Z,993.41
2023-01-11T01:02:41.878Z,993.38
2023-01-11T01:03:41.807Z,993.36
2023-01-11T01:04:41.817Z,993.41
2023-01-11T01:05:41.837Z,993.38
2023-01-11T01:06:41.871Z,993.44
2023-01-11T01:07:41.864Z,993.39
2023-01-11T01:08:41.876Z,993.37
2023-01-11T01:09:41.898Z,993.39
2023-01-11T01:10:41.903Z,993.35
2023-01-11T01:11:41.923Z,993.41
2023-01-11T01:12:41.938Z,993.3
2023-01-11T01:13:41.951Z,993.27
2023-01-11T01:14:41.991Z,993.24
2023-01-11T01:15:42.000Z,993.24
2023-01-11T01:16:41.994Z,993.21
2023-01-11T01:17:42.014Z,993.25
2023-01-11T01:18:42.027Z,993.36
2023-01-11T01:19:42.044Z,993.33
2023-01-11T01:20:42.055Z,993.39
2023-01-11T01:21:42.070Z,993.37
2023-01-11T01:22:42.086Z,993.31
2023-01-11T01:23:42.105Z,993.37
2023-01-11T01:24:42.112Z,993.35
2023-01-11T01:25:42.143Z,993.33
2023-01-11T01:26:42.142Z,993.27
2023-01-11T01:27:42.168Z,993.22
2023-01-11T01:28:42.179Z,993.2
2023-01-11T01:29:42.196Z,993.28
2023-01-11T01:30:42.224Z,993.3
2023-01-11T01:31:42.230Z,993.28
2023-01-11T01:32:42.239Z,993.36
2023-01-11T01:33:42.249Z,993.3
2023-01-11T01:34:42.262Z,993.2
2023-01-11T01:35:42.280Z,993.24
2023-01-11T01:36:42.298Z,993.27
2023-01-11T01:37:42.308Z,993.22
2023-01-11T01:38:42.323Z,993.27
2023-01-11T01:39:42.349Z,993.18
2023-01-11T01:40:42.356Z,993.17
2023-01-11T01:41:42.375Z,993.2
2023-01-11T01:42:42.383Z,993.2
2023-01-11T01:43:42.401Z,993.24
2023-01-11T01:44:42.414Z,993.27
2023-01-11T01:45:42.425Z,993.15
2023-01-11T01:46:42.515Z,993.05
2023-01-11T01:47:42.456Z,993.14
2023-01-11T01:48:42.485Z,993.17
2023-01-11T01:49:42.488Z,993.1
2023-01-11T01:50:42.505Z,993.04
2023-01-11T01:51:42.526Z,993.03
2023-01-11T01:52:42.536Z,993.08
2023-01-11T01:53:42.550Z,993.27
2023-01-11T01:54:42.568Z,993.21
2023-01-11T01:55:42.588Z,993.09
2023-01-11T01:56:42.595Z,993.15
2023-01-11T01:57:42.617Z,993.06
2023-01-11T01:58:42.625Z,993.05
2023-01-11T01:59:42.635Z,993.16
2023-01-11T02:00:42.660Z,993.18
2023-01-11T02:01:42.711Z,993.14
2023-01-11T02:02:42.749Z,993.13
2023-01-11T02:03:42.702Z,993.06
2023-01-11T02:04:42.709Z,993.12
2023-01-11T02:05:42.734Z,993.18
2023-01-11T02:06:42.820Z,993.14
2023-01-11T02:07:42.756Z,993.12
2023-01-11T02:08:42.774Z,993.1
2023-01-11T02:09:42.794Z,993.08
2023-01-11T02:10:42.799Z,993.06
2023-01-11T02:11:42.818Z,993.08
2023-01-11T02:12:42.831Z,993.02
2023-01-11T02:13:42.851Z,992.99
2023-01-11T02:14:42.862Z,992.84
2023-01-11T02:15:42.907Z,992.87
2023-01-11T02:16:42.892Z,992.87
2023-01-11T02:17:42.919Z,992.85
2023-01-11T02:18:42.944Z,992.8
2023-01-11T02:19:42.942Z,992.88
2023-01-11T02:20:42.957Z,992.83
2023-01-11T02:21:42.966Z,992.78
2023-01-11T02:22:42.981Z,992.75
2023-01-11T02:23:42.994Z,992.67
2023-01-11T02:24:43.014Z,992.68
2023-01-11T02:25:43.025Z,992.65
2023-01-11T02:26:43.037Z,992.6
2023-01-11T02:27:43.058Z,992.62
2023-01-11T02:28:43.069Z,992.61
2023-01-11T02:29:43.087Z,992.67
2023-01-11T02:30:43.100Z,992.64
2023-01-11T02:31:43.121Z,992.72
2023-01-11T02:32:43.131Z,992.68
2023-01-11T02:33:43.157Z,992.65
2023-01-11T02:34:43.175Z,992.63
2023-01-11T02:35:43.379Z,992.59
2023-01-11T02:36:43.190Z,992.53
2023-01-11T02:37:43.211Z,992.5
2023-01-11T02:38:43.226Z,992.49
2023-01-11T02:39:43.239Z,992.48
2023-01-11T02:40:43.248Z,992.42
2023-01-11T02:41:43.265Z,992.42
2023-01-11T02:42:43.278Z,992.46
2023-01-11T02:43:43.294Z,992.44
2023-01-11T02:44:43.310Z,992.5
2023-01-11T02:45:43.324Z,992.53
2023-01-11T02:46:43.497Z,992.5
2023-01-11T02:47:43.347Z,992.47
2023-01-11T02:48:43.371Z,992.41
2023-01-11T02:49:43.384Z,992.43
2023-01-11T02:50:43.429Z,992.38
2023-01-11T02:51:43.414Z,992.34
2023-01-11T02:52:43.432Z,992.41
2023-01-11T02:53:43.450Z,992.39
2023-01-11T02:54:43.462Z,992.39
2023-01-11T02:55:43.471Z,992.38
2023-01-11T02:56:43.494Z,992.44
2023-01-11T02:57:43.503Z,992.34
2023-01-11T02:58:43.518Z,992.32
2023-01-11T02:59:43.535Z,992.28
2023-01-11T03:00:43.552Z,992.36
2023-01-11T03:01:43.606Z,992.31
2023-01-11T03:02:43.604Z,992.3
2023-01-11T03:03:43.610Z,992.22
2023-01-11T03:04:43.601Z,992.24
2023-01-11T03:05:43.633Z,992.25
2023-01-11T03:06:43.756Z,992.32
2023-01-11T03:07:43.664Z,992.4
2023-01-11T03:08:43.687Z,992.33
2023-01-11T03:09:43.681Z,992.28
2023-01-11T03:10:43.700Z,992.34
2023-01-11T03:11:43.713Z,992.3
2023-01-11T03:12:43.729Z,992.32
2023-01-11T03:13:43.751Z,992.28
2023-01-11T03:14:43.768Z,992.25
2023-01-11T03:15:43.845Z,992.25
2023-01-11T03:16:43.789Z,992.22
2023-01-11T03:17:43.802Z,992.18
2023-01-11T03:18:43.820Z,992.23
2023-01-11T03:19:43.845Z,992.17
2023-01-11T03:20:43.866Z,992.15
2023-01-11T03:21:43.871Z,992.16
2023-01-11T03:22:43.904Z,992.11
2023-01-11T03:23:43.898Z,992.1
2023-01-11T03:24:44.096Z,992.1
2023-01-11T03:25:43.929Z,992.14
2023-01-11T03:26:43.939Z,992.11
2023-01-11T03:27:43.956Z,992.15
2023-01-11T03:28:43.970Z,992.12
2023-01-11T03:29:43.980Z,992.01
2023-01-11T03:30:44.003Z,992.02
2023-01-11T03:31:44.100Z,992.08
2023-01-11T03:32:44.027Z,992.02
2023-01-11T03:33:44.042Z,992.02
2023-01-11T03:34:44.121Z,991.96
2023-01-11T03:35:44.279Z,991.94
2023-01-11T03:36:44.093Z,991.99
2023-01-11T03:37:44.122Z,991.92
2023-01-11T03:38:44.144Z,991.95
2023-01-11T03:39:44.133Z,991.87
2023-01-11T03:40:44.145Z,991.88
2023-01-11T03:41:44.164Z,991.83
2023-01-11T03:42:44.177Z,991.83
2023-01-11T03:43:44.214Z,991.9
2023-01-11T03:44:44.206Z,991.88
2023-01-11T03:45:44.222Z,991.84
2023-01-11T03:46:44.286Z,991.78
2023-01-11T03:47:44.254Z,991.83
2023-01-11T03:48:44.271Z,991.87
2023-01-11T03:49:44.287Z,991.83
2023-01-11T03:50:44.414Z,991.78
2023-01-11T03:51:44.315Z,991.71
2023-01-11T03:52:44.332Z,991.66
2023-01-11T03:53:44.372Z,991.74
2023-01-11T03:54:44.426Z,991.85
2023-01-11T03:55:44.527Z,991.9
2023-01-11T03:56:44.391Z,991.91
2023-01-11T03:57:44.406Z,991.88
2023-01-11T03:58:44.415Z,991.83
2023-01-11T03:59:44.429Z,991.72
2023-01-11T04:00:44.512Z,991.74
2023-01-11T04:01:44.465Z,991.8
2023-01-11T04:02:44.476Z,991.73
2023-01-11T04:03:44.492Z,991.72
2023-01-11T04:04:44.505Z,991.77
2023-01-11T04:05:44.525Z,991.81
2023-01-11T04:06:44.601Z,991.8
2023-01-11T04:07:44.552Z,991.76
2023-01-11T04:08:44.566Z,991.78
2023-01-11T04:09:44.588Z,991.73
2023-01-11T04:10:44.620Z,991.62
2023-01-11T04:11:44.609Z,991.69
2023-01-11T04:12:44.623Z,991.66
2023-01-11T04:13:44.642Z,991.56
2023-01-11T04:14:44.653Z,991.62
2023-01-11T04:15:44.669Z,991.56
2023-01-11T04:16:44.694Z,991.64
2023-01-11T04:17:44.714Z,991.72
2023-01-11T04:18:44.718Z,991.66
2023-01-11T04:19:44.742Z,991.65
2023-01-11T04:20:44.754Z,991.56
2023-01-11T04:21:44.765Z,991.6
2023-01-11T04:22:44.774Z,991.51
2023-01-11T04:23:44.792Z,991.51
2023-01-11T04:24:44.806Z,991.57
2023-01-11T04:25:44.825Z,991.6
2023-01-11T04:26:44.867Z,991.44
2023-01-11T04:27:44.852Z,991.45
2023-01-11T04:28:44.880Z,991.64
2023-01-11T04:29:44.881Z,991.56
2023-01-11T04:30:44.894Z,991.55
2023-01-11T04:31:44.997Z,991.54
2023-01-11T04:32:44.934Z,991.47
2023-01-11T04:33:44.975Z,991.42
2023-01-11T04:34:44.963Z,991.35
2023-01-11T04:35:45.327Z,991.46
2023-01-11T04:36:44.996Z,991.59
2023-01-11T04:37:45.001Z,991.53
2023-01-11T04:38:45.016Z,991.5
2023-01-11T04:39:45.033Z,991.46
2023-01-11T04:40:45.045Z,991.57
2023-01-11T04:41:45.061Z,991.59
2023-01-11T04:42:45.102Z,991.52
2023-01-11T04:43:45.103Z,991.55
2023-01-11T04:44:45.107Z,991.51
2023-01-11T04:45:45.137Z,991.46
2023-01-11T04:46:45.145Z,991.5
2023-01-11T04:47:45.151Z,991.49
2023-01-11T04:48:45.167Z,991.51
2023-01-11T04:49:45.183Z,991.5
2023-01-11T04:50:45.200Z,991.49
2023-01-11T04:51:45.212Z,991.48
2023-01-11T04:52:45.228Z,991.45
2023-01-11T04:53:45.239Z,991.52
2023-01-11T04:54:45.257Z,991.45
2023-01-11T04:55:45.278Z,991.48
2023-01-11T04:56:45.289Z,991.45
2023-01-11T04:57:45.299Z,991.5
2023-01-11T04:58:45.343Z,991.53
2023-01-11T04:59:45.332Z,991.57
2023-01-11T05:00:45.369Z,991.54
2023-01-11T05:01:45.364Z,991.49
2023-01-11T05:02:45.388Z,991.55
2023-01-11T05:03:45.542Z,991.55
2023-01-11T05:04:45.409Z,991.58
2023-01-11T05:05:45.421Z,991.51
2023-01-11T05:06:45.550Z,991.55
2023-01-11T05:07:45.452Z,991.53
2023-01-11T05:08:45.469Z,991.45
2023-01-11T05:09:45.483Z,991.49
2023-01-11T05:10:45.498Z,991.54
2023-01-11T05:11:45.510Z,991.49
2023-01-11T05:12:45.527Z,991.55
2023-01-11T05:13:45.549Z,991.5
2023-01-11T05:14:45.597Z,991.51
2023-01-11T05:15:45.569Z,991.51
2023-01-11T05:16:45.661Z,991.53
2023-01-11T05:17:45.616Z,991.49
2023-01-11T05:18:45.634Z,991.51
2023-01-11T05:19:45.633Z,991.46
2023-01-11T05:20:45.646Z,991.47
2023-01-11T05:21:45.671Z,991.53
2023-01-11T05:22:45.679Z,991.5
2023-01-11T05:23:45.697Z,991.52
2023-01-11T05:24:45.706Z,991.42
2023-01-11T05:25:45.819Z,991.46
2023-01-11T05:26:45.765Z,991.42
2023-01-11T05:27:45.760Z,991.45
2023-01-11T05:28:45.792Z,991.44
2023-01-11T05:29:45.784Z,991.48
2023-01-11T05:30:45.821Z,991.46
2023-01-11T05:31:45.872Z,991.45
2023-01-11T05:32:45.829Z,991.41
2023-01-11T05:33:45.856Z,991.46
2023-01-11T05:34:45.859Z,991.44
2023-01-11T05:35:46.323Z,991.48
2023-01-11T05:36:45.896Z,991.5
2023-01-11T05:37:45.904Z,991.44
2023-01-11T05:38:45.916Z,991.47
2023-01-11T05:39:45.938Z,991.44
2023-01-11T05:40:45.965Z,991.45
2023-01-11T05:41:45.974Z,991.45
2023-01-11T05:42:45.983Z,991.37
2023-01-11T05:43:45.993Z,991.33
2023-01-11T05:44:46.009Z,991.3
2023-01-11T05:45:46.114Z,991.35
2023-01-11T05:46:46.059Z,991.34
2023-01-11T05:47:46.057Z,991.32
2023-01-11T05:48:46.070Z,991.28
2023-01-11T05:49:46.085Z,991.39
2023-01-11T05:50:46.096Z,991.38
2023-01-11T05:51:46.116Z,991.32
2023-01-11T05:52:46.129Z,991.35
2023-01-11T05:53:46.143Z,991.35
2023-01-11T05:54:46.158Z,991.38
2023-01-11T05:55:46.176Z,991.37
2023-01-11T05:56:46.202Z,991.33
2023-01-11T05:57:46.207Z,991.39
2023-01-11T05:58:46.220Z,991.41
2023-01-11T05:59:46.233Z,991.38
2023-01-11T06:00:46.251Z,991.31
2023-01-11T06:01:46.414Z,991.25
2023-01-11T06:02:46.388Z,991.24
2023-01-11T06:03:46.295Z,991.21
2023-01-11T06:04:46.307Z,991.21
2023-01-11T06:05:46.320Z,991.18
2023-01-11T06:06:46.367Z,991.27
2023-01-11T06:07:46.348Z,991.23
2023-01-11T06:08:46.370Z,991.2
2023-01-11T06:09:46.386Z,991.16
2023-01-11T06:10:46.404Z,991.16
2023-01-11T06:11:46.422Z,991.15
2023-01-11T06:12:46.438Z,991.18
2023-01-11T06:13:46.447Z,991.14
2023-01-11T06:14:46.474Z,991.16
2023-01-11T06:15:46.476Z,991.13
2023-01-11T06:16:46.576Z,991.16
2023-01-11T06:17:46.506Z,991.14
2023-01-11T06:18:46.561Z,991.18
2023-01-11T06:19:46.538Z,991.19
2023-01-11T06:20:46.552Z,991.22
2023-01-11T06:21:46.572Z,991.24
2023-01-11T06:22:46.587Z,991.36
2023-01-11T06:23:46.594Z,991.34
2023-01-11T06:24:46.620Z,991.26
2023-01-11T06:25:46.625Z,991.27
2023-01-11T06:26:46.645Z,991.26
2023-01-11T06:27:46.657Z,991.29
2023-01-11T06:28:46.675Z,991.24
2023-01-11T06:29:46.693Z,991.23
2023-01-11T06:30:46.704Z,991.25
2023-01-11T06:31:46.720Z,991.23
2023-01-11T06:32:46.734Z,991.26
2023-01-11T06:33:46.750Z,991.25
2023-01-11T06:34:46.818Z,991.22
2023-01-11T06:35:46.830Z,991.19
2023-01-11T06:36:46.797Z,991.14
2023-01-11T06:37:46.811Z,991.12
2023-01-11T06:38:46.827Z,991.18
2023-01-11T06:39:46.841Z,991.2
2023-01-11T06:40:46.857Z,991.19
2023-01-11T06:41:46.872Z,991.14
2023-01-11T06:42:46.890Z,991.2
2023-01-11T06:43:46.935Z,991.19
2023-01-11T06:44:46.923Z,991.13
2023-01-11T06:45:46.953Z,991.16
2023-01-11T06:46:46.953Z,991.17
2023-01-11T06:47:46.963Z,991.16
2023-01-11T06:48:46.977Z,991.19
2023-01-11T06:49:47.010Z,991.2
2023-01-11T06:50:47.038Z,991.22
2023-01-11T06:51:47.024Z,991.18
2023-01-11T06:52:47.039Z,991.13
2023-01-11T06:53:47.055Z,991.17
2023-01-11T06:54:47.071Z,991.15
2023-01-11T06:55:47.082Z,991.06
2023-01-11T06:56:47.100Z,991.11
2023-01-11T06:57:47.126Z,991.06
2023-01-11T06:58:47.637Z,991.08
2023-01-11T06:59:47.143Z,991.11
2023-01-11T07:00:47.161Z,991.15
2023-01-11T07:01:47.215Z,991.17
2023-01-11T07:02:47.188Z,991.25
2023-01-11T07:03:47.205Z,991.21
2023-01-11T07:04:47.268Z,991.21
2023-01-11T07:05:47.250Z,991.18
2023-01-11T07:06:47.272Z,991.18
2023-01-11T07:07:47.268Z,991.14
2023-01-11T07:08:47.282Z,991.21
2023-01-11T07:09:47.297Z,991.19
2023-01-11T07:10:47.325Z,991.25
2023-01-11T07:11:47.341Z,991.22
2023-01-11T07:12:47.343Z,991.25
2023-01-11T07:13:47.359Z,991.27
2023-01-11T07:14:47.372Z,991.17
2023-01-11T07:15:47.435Z,991.18
2023-01-11T07:16:47.403Z,991.16
2023-01-11T07:17:47.419Z,991.22
2023-01-11T07:18:47.438Z,991.19
2023-01-11T07:19:47.449Z,991.2
2023-01-11T07:20:47.485Z,991.2
2023-01-11T07:21:47.481Z,991.25
2023-01-11T07:22:47.527Z,991.27
2023-01-11T07:23:47.510Z,991.23
2023-01-11T07:24:48.498Z,991.21
2023-01-11T07:25:47.544Z,991.18
2023-01-11T07:26:47.554Z,991.2
2023-01-11T07:27:47.569Z,991.23
2023-01-11T07:28:47.585Z,991.19
2023-01-11T07:29:47.601Z,991.2
2023-01-11T07:30:57.985Z,991.23
2023-01-11T07:31:47.720Z,991.27
2023-01-11T07:32:47.644Z,991.24
2023-01-11T07:33:47.662Z,991.23
2023-01-11T07:34:47.686Z,991.27
2023-01-11T07:35:48.146Z,991.3
2023-01-11T07:36:47.703Z,991.31
2023-01-11T07:37:47.721Z,991.33
2023-01-11T07:38:47.760Z,991.31
2023-01-11T07:39:47.754Z,991.33
2023-01-11T07:40:47.781Z,991.34
2023-01-11T07:41:47.784Z,991.34
2023-01-11T07:42:47.797Z,991.33
2023-01-11T07:43:47.822Z,991.34
2023-01-11T07:44:47.828Z,991.44
2023-01-11T07:45:47.918Z,991.4
2023-01-11T07:46:47.952Z,991.4
2023-01-11T07:47:47.875Z,991.4
2023-01-11T07:48:47.886Z,991.38
2023-01-11T07:49:47.905Z,991.39
2023-01-11T07:50:47.917Z,991.33
2023-01-11T07:51:47.935Z,991.3
2023-01-11T07:52:47.955Z,991.3
2023-01-11T07:53:47.970Z,991.37
2023-01-11T07:54:48.005Z,991.35
2023-01-11T07:55:47.998Z,991.42
2023-01-11T07:56:48.015Z,991.37
2023-01-11T07:57:48.028Z,991.34
2023-01-11T07:58:48.047Z,991.36
2023-01-11T07:59:48.053Z,991.32
2023-01-11T08:00:48.094Z,991.42
2023-01-11T08:01:48.084Z,991.41
2023-01-11T08:02:48.163Z,991.43
2023-01-11T08:03:48.268Z,991.39
2023-01-11T08:04:48.133Z,991.45
2023-01-11T08:05:48.147Z,991.45
2023-01-11T08:06:48.171Z,991.39
2023-01-11T08:07:48.178Z,991.45
2023-01-11T08:08:48.198Z,991.42
2023-01-11T08:09:48.207Z,991.43
2023-01-11T08:10:48.253Z,991.41
2023-01-11T08:11:48.238Z,991.4
2023-01-11T08:12:50.671Z,991.38
2023-01-11T08:13:48.271Z,991.41
2023-01-11T08:14:48.287Z,991.39
2023-01-11T08:15:48.346Z,991.42
2023-01-11T08:16:48.316Z,991.44
2023-01-11T08:17:48.340Z,991.42
2023-01-11T08:18:48.348Z,991.43
2023-01-11T08:19:48.389Z,991.47
2023-01-11T08:20:48.376Z,991.49
2023-01-11T08:21:48.390Z,991.49
2023-01-11T08:22:48.407Z,991.49
2023-01-11T08:23:48.423Z,991.48
2023-01-11T08:24:48.446Z,991.49
2023-01-11T08:25:48.459Z,991.5
2023-01-11T08:26:48.507Z,991.54
2023-01-11T08:27:48.482Z,991.56
2023-01-11T08:28:48.502Z,991.6
2023-01-11T08:29:48.511Z,991.55
2023-01-11T08:30:48.556Z,991.59
2023-01-11T08:31:48.547Z,991.56
2023-01-11T08:32:48.569Z,991.62
2023-01-11T08:33:48.576Z,991.68
2023-01-11T08:34:48.596Z,991.69
2023-01-11T08:35:49.055Z,991.72
2023-01-11T08:36:48.624Z,991.77
2023-01-11T08:37:48.633Z,991.77
2023-01-11T08:38:48.652Z,991.74
2023-01-11T08:39:48.666Z,991.71
2023-01-11T08:40:48.719Z,991.85
2023-01-11T08:41:48.696Z,991.83
2023-01-11T08:42:48.750Z,991.81
2023-01-11T08:43:48.731Z,991.81
2023-01-11T08:44:48.740Z,991.84
2023-01-11T08:45:48.758Z,991.82
2023-01-11T08:46:48.776Z,991.8
2023-01-11T08:47:48.788Z,991.81
2023-01-11T08:48:48.805Z,991.85
2023-01-11T08:49:48.823Z,991.86
2023-01-11T08:50:48.831Z,991.87
2023-01-11T08:51:48.851Z,991.83
2023-01-11T08:52:48.862Z,991.86
2023-01-11T08:53:48.883Z,991.88
2023-01-11T08:54:48.895Z,991.91
2023-01-11T08:55:48.913Z,991.88
2023-01-11T08:56:48.923Z,991.95
2023-01-11T08:57:48.942Z,992
2023-01-11T08:58:48.985Z,991.99
2023-01-11T08:59:48.985Z,991.97
2023-01-11T09:00:48.989Z,991.98
2023-01-11T09:01:49.045Z,992.01
2023-01-11T09:02:49.067Z,992.06
2023-01-11T09:03:49.033Z,992.07
2023-01-11T09:04:49.046Z,992.07
2023-01-11T09:05:49.065Z,992.03
2023-01-11T09:06:49.080Z,991.97
2023-01-11T09:07:49.097Z,992.07
2023-01-11T09:08:49.108Z,992
2023-01-11T09:09:49.128Z,992.04
2023-01-11T09:10:49.139Z,992.08
2023-01-11T09:11:49.156Z,992.08
2023-01-11T09:12:49.171Z,992.09
2023-01-11T09:13:49.185Z,992.11
2023-01-11T09:14:49.243Z,992.12
2023-01-11T09:15:49.233Z,992.05
2023-01-11T09:16:49.231Z,992.05
2023-01-11T09:17:49.252Z,992.07
2023-01-11T09:18:49.270Z,992.08
2023-01-11T09:19:49.278Z,992.03
2023-01-11T09:20:49.302Z,992.01
2023-01-11T09:21:49.306Z,992.08
2023-01-11T09:22:50.710Z,992.09
2023-01-11T09:23:49.334Z,992.11
2023-01-11T09:24:49.363Z,992.14
2023-01-11T09:25:49.366Z,992.16
2023-01-11T09:26:49.424Z,992.16
2023-01-11T09:27:49.499Z,992.2
2023-01-11T09:28:49.485Z,992.15
2023-01-11T09:29:49.428Z,992.07
2023-01-11T09:30:49.569Z,992
2023-01-11T09:31:49.461Z,992.11
2023-01-11T09:32:49.473Z,992.06
2023-01-11T09:33:49.487Z,992.05
2023-01-11T09:34:49.566Z,992
2023-01-11T09:35:49.722Z,992.02
2023-01-11T09:36:49.539Z,992.02
2023-01-11T09:37:49.551Z,991.93
2023-01-11T09:38:49.567Z,991.93
2023-01-11T09:39:49.587Z,991.93
2023-01-11T09:40:49.598Z,992.05
2023-01-11T09:41:49.621Z,992.11
2023-01-11T09:42:49.627Z,992.08
2023-01-11T09:43:49.647Z,992.12
2023-01-11T09:44:49.667Z,992.12
2023-01-11T09:45:49.675Z,992.18
2023-01-11T09:46:49.782Z,992.14
2023-01-11T09:47:49.714Z,992.12
2023-01-11T09:48:49.721Z,992.14
2023-01-11T09:49:49.737Z,992.08
2023-01-11T09:50:49.786Z,992.07
2023-01-11T09:51:49.768Z,992.04
2023-01-11T09:52:49.782Z,992.01
2023-01-11T09:53:49.801Z,992.1
2023-01-11T09:54:49.818Z,992.04
2023-01-11T09:55:49.827Z,992.16
2023-01-11T09:56:49.853Z,992.11
2023-01-11T09:57:49.918Z,992.12
2023-01-11T09:58:49.878Z,992.13
2023-01-11T09:59:49.889Z,992.21
2023-01-11T10:00:50.409Z,992.2
2023-01-11T10:01:49.921Z,992.2
2023-01-11T10:02:49.963Z,992.25
2023-01-11T10:03:49.960Z,992.19
2023-01-11T10:04:50.040Z,992.25
2023-01-11T10:05:49.998Z,992.17
2023-01-11T10:06:49.997Z,992.13
2023-01-11T10:07:50.009Z,992.11
2023-01-11T10:19:25.056Z,992.12
2023-01-11T10:19:59.856Z,992.17
2023-01-11T10:20:59.831Z,992.16
2023-01-11T10:21:59.853Z,992.22
2023-01-11T10:22:59.863Z,992.23
2023-01-11T10:23:59.877Z,992.27
2023-01-11T10:24:59.892Z,992.21
2023-01-11T10:25:59.905Z,992.25
2023-01-11T10:26:59.968Z,992.32
2023-01-11T10:27:59.940Z,992.2
2023-01-11T10:28:59.955Z,992.24
2023-01-11T10:29:59.975Z,992.22
2023-01-11T10:30:59.985Z,992.22
2023-01-11T10:31:59.998Z,992.21
2023-01-11T10:33:00.033Z,992.31
2023-01-11T10:34:00.043Z,992.34
2023-01-11T10:35:00.196Z,992.31
2023-01-11T10:36:00.068Z,992.36
2023-01-11T10:37:00.077Z,992.42
2023-01-11T10:38:00.102Z,992.36
2023-01-11T10:39:00.105Z,992.41
2023-01-11T10:40:00.144Z,992.41
2023-01-11T10:41:00.138Z,992.45
2023-01-11T10:42:00.165Z,992.46
2023-01-11T10:43:00.169Z,992.47
2023-01-11T10:44:00.185Z,992.52
2023-01-11T10:45:00.272Z,992.54
2023-01-11T10:46:00.320Z,992.48
2023-01-11T10:47:00.238Z,992.49
2023-01-11T10:48:00.254Z,992.51
2023-01-11T10:49:00.290Z,992.51
2023-01-11T10:50:00.298Z,992.52
2023-01-11T10:51:00.344Z,992.55
2023-01-11T10:52:00.309Z,992.57
2023-01-11T10:53:00.326Z,992.51
2023-01-11T10:54:00.371Z,992.46
2023-01-11T10:55:00.358Z,992.45
2023-01-11T10:56:00.391Z,992.46
2023-01-11T10:57:02.017Z,992.54
2023-01-11T10:58:02.145Z,992.53
2023-01-11T10:59:00.416Z,992.56
2023-01-11T11:00:00.445Z,992.54
2023-01-11T11:01:00.639Z,992.53
2023-01-11T11:02:00.507Z,992.56
2023-01-11T11:03:00.476Z,992.51
2023-01-11T11:04:00.753Z,992.52
2023-01-11T11:05:00.499Z,992.57
2023-01-11T11:06:00.525Z,992.64
2023-01-11T11:07:00.575Z,992.61
2023-01-11T11:08:00.562Z,992.64
2023-01-11T11:09:00.569Z,992.68
2023-01-11T11:10:00.587Z,992.67
2023-01-11T11:11:00.599Z,992.68
2023-01-11T11:12:00.629Z,992.67
2023-01-11T11:13:00.640Z,992.7
2023-01-11T11:14:00.658Z,992.69
2023-01-11T11:15:00.659Z,992.68
2023-01-11T11:16:00.757Z,992.66
2023-01-11T11:17:00.694Z,992.67
2023-01-11T11:18:00.710Z,992.67
2023-01-11T11:19:00.734Z,992.72
2023-01-11T11:20:00.752Z,992.66
2023-01-11T11:21:00.755Z,992.66
2023-01-11T11:22:00.770Z,992.62
2023-01-11T11:23:00.822Z,992.61
2023-01-11T11:24:00.811Z,992.68
2023-01-11T11:25:00.817Z,992.69
2023-01-11T11:26:00.837Z,992.75
2023-01-11T11:27:00.888Z,992.83
2023-01-11T11:28:00.862Z,992.84
2023-01-11T11:29:00.885Z,992.8
2023-01-11T11:30:00.898Z,992.8
2023-01-11T11:31:00.918Z,992.89
2023-01-11T11:32:01.011Z,992.86
2023-01-11T11:33:00.937Z,992.88
2023-01-11T11:34:00.955Z,992.83
2023-01-11T11:35:00.970Z,992.92
2023-01-11T11:36:00.985Z,992.93
2023-01-11T11:37:01.013Z,992.9
2023-01-11T11:38:01.014Z,992.89
2023-01-11T11:39:01.144Z,992.9
2023-01-11T11:40:01.048Z,992.83
2023-01-11T11:41:01.067Z,992.85
2023-01-11T11:42:01.079Z,992.9
2023-01-11T11:43:01.094Z,992.85
2023-01-11T11:44:01.119Z,992.91
2023-01-11T11:45:01.134Z,992.94
2023-01-11T11:46:01.170Z,992.98
2023-01-11T11:47:01.155Z,992.96
2023-01-11T11:48:01.175Z,992.99
2023-01-11T11:49:01.186Z,992.97
2023-01-11T11:50:01.204Z,993
2023-01-11T11:51:01.215Z,992.96
2023-01-11T11:52:01.230Z,993.04
2023-01-11T11:53:01.250Z,993.1
2023-01-11T11:54:01.267Z,993.07
2023-01-11T11:55:01.302Z,993.04
2023-01-11T11:56:01.289Z,993.04
2023-01-11T11:57:01.307Z,993.08
2023-01-11T11:58:01.323Z,993.07
2023-01-11T11:59:01.337Z,993.02
2023-01-11T12:00:01.375Z,993.1
2023-01-11T12:01:01.375Z,993.07
2023-01-11T12:02:01.436Z,993.09
2023-01-11T12:03:01.405Z,993.15
2023-01-11T12:04:01.918Z,993.17
2023-01-11T12:05:01.476Z,993.19
2023-01-11T12:06:01.470Z,993.16
2023-01-11T12:07:01.463Z,993.09
2023-01-11T12:08:01.482Z,993.07
2023-01-11T12:09:01.508Z,993.06
2023-01-11T12:10:01.507Z,993.18
2023-01-11T12:11:01.563Z,993.13
2023-01-11T12:12:01.549Z,993.13
2023-01-11T12:13:01.554Z,993.12
2023-01-11T12:14:01.569Z,993.18
2023-01-11T12:15:01.584Z,993.15
2023-01-11T12:16:01.639Z,993.17
2023-01-11T12:17:01.689Z,993.2
2023-01-11T12:18:01.633Z,993.18
2023-01-11T12:19:01.647Z,993.15
2023-01-11T12:20:01.670Z,993.13
2023-01-11T12:21:01.676Z,993.14
2023-01-11T12:22:01.691Z,993.15
2023-01-11T12:23:01.712Z,993.16
2023-01-11T12:24:01.725Z,993.14
2023-01-11T12:25:01.746Z,993.2
2023-01-11T12:26:01.754Z,993.22
2023-01-11T12:27:01.960Z,993.24
2023-01-11T12:28:01.785Z,993.23
2023-01-11T12:29:01.799Z,993.27
2023-01-11T12:30:01.836Z,993.3
2023-01-11T12:31:01.915Z,993.31
2023-01-11T12:32:01.850Z,993.27
2023-01-11T12:33:01.864Z,993.27
2023-01-11T12:34:01.877Z,993.25
2023-01-11T12:35:01.897Z,993.25
2023-01-11T12:36:03.360Z,993.27
2023-01-11T12:37:01.934Z,993.28
2023-01-11T12:38:01.946Z,993.31
2023-01-11T12:39:01.993Z,993.3
2023-01-11T12:40:01.975Z,993.29
2023-01-11T12:41:01.985Z,993.3
2023-01-11T12:42:02.002Z,993.34